Penticton, Canada
Current Conditions -  °F | °C
As of 10:00 AM on Saturday 25 Oct 2014 (Local Time) from CYYF Reporting Station
Overcast Overcast  
Wind Chill: 46°   Ceiling: 5200
Heat Index: 46°   Visibility: 15mi
Dew Point: 43°   Wind: 3mph
Humidity: 87%   Direction: 10°N
Pressure: 29.66"   Gusts: NA
Location:  49.5°N, 119.59°W
Report Text: CYYF 251700Z 01003KT 15SM SCT014 BKN052 OVC080 08/06 A2966 RMK SF3SC4AC1 SLP050
Loading
Personal Weather Stations






























Interactive Weather Map
Tropical Storm Tracking
New forecast layout! Learn more

10-Day Weather Forecast

Advertisements
Track Severe Weather on mobile